createdAt,value
2018-11-05T01:52:01.966Z,1007.0
2018-11-05T02:02:48.272Z,1007.0
2018-11-05T02:12:59.469Z,1006.8
2018-11-05T02:23:25.849Z,1006.7
2018-11-05T02:34:13.651Z,1006.6
2018-11-05T02:44:25.883Z,1006.7
2018-11-05T02:55:12.460Z,1006.7
2018-11-05T03:06:08.190Z,1006.6
2018-11-05T03:27:21.259Z,1006.3
2018-11-05T03:37:34.531Z,1006.4
2018-11-05T03:47:48.329Z,1006.3
2018-11-05T03:58:00.277Z,1006.3
2018-11-05T04:08:52.830Z,1006.5
2018-11-05T04:19:48.931Z,1006.4
2018-11-05T04:30:22.548Z,1006.3
2018-11-05T04:52:19.119Z,1006.0
2018-11-05T05:14:01.618Z,1005.9
2018-11-05T05:24:15.513Z,1005.9
2018-11-05T05:35:28.122Z,1005.9
2018-11-05T05:46:32.117Z,1006.0
2018-11-05T06:09:10.075Z,1006.0
2018-11-05T06:20:01.430Z,1006.1
2018-11-05T06:30:35.370Z,1006.0
2018-11-05T06:41:21.546Z,1006.1
2018-11-05T06:52:10.118Z,1006.1
2018-11-05T07:04:39.960Z,1006.0
2018-11-05T07:14:53.923Z,1005.9
2018-11-05T07:25:40.946Z,1005.9
2018-11-05T07:35:54.263Z,1005.9
2018-11-05T07:47:33.782Z,1006.0
2018-11-05T07:59:29.957Z,1006.1
2018-11-05T09:03:03.236Z,1005.8
2018-11-05T09:16:24.108Z,1005.7
2018-11-05T09:44:13.998Z,1005.5
2018-11-05T10:05:24.768Z,1005.2
2018-11-05T10:27:58.044Z,1005.3
2018-11-05T10:38:13.458Z,1005.3
2018-11-05T10:49:07.759Z,1005.2
2018-11-05T10:59:23.063Z,1005.1
2018-11-05T11:09:38.167Z,1005.0
2018-11-05T11:19:53.466Z,1005.0
2018-11-05T12:00:23.594Z,1004.6
2018-11-05T12:11:17.201Z,1004.5
2018-11-05T12:38:26.883Z,1004.2
2018-11-05T12:49:22.444Z,1004.0
2018-11-05T13:03:14.900Z,1003.8
2018-11-05T13:13:29.783Z,1004.0
2018-11-05T13:23:44.946Z,1003.9
2018-11-05T13:34:58.393Z,1003.9
2018-11-05T13:47:37.208Z,1003.8
2018-11-05T14:13:10.840Z,1003.4
2018-11-05T14:25:55.891Z,1003.3
2018-11-05T14:50:53.010Z,1003.1
2018-11-05T15:06:02.617Z,1002.9
2018-11-05T15:17:35.295Z,1002.8
2018-11-05T15:28:35.099Z,1002.8
2018-11-05T15:38:54.119Z,1002.8
2018-11-05T15:49:13.491Z,1002.9
2018-11-05T16:00:06.504Z,1003.0
2018-11-05T17:31:17.781Z,1003.1
2018-11-05T17:52:18.405Z,1003.1
2018-11-05T18:04:16.925Z,1003.1
2018-11-05T18:15:04.264Z,1003.2
2018-11-05T18:42:19.158Z,1002.7
2018-11-05T20:01:40.413Z,1002.7
2018-11-05T20:12:48.055Z,1002.8
2018-11-05T20:24:46.691Z,1002.7
2018-11-05T20:36:23.505Z,1002.8
2018-11-05T20:48:02.842Z,1002.7
2018-11-05T20:59:57.764Z,1002.5
2018-11-05T21:11:38.993Z,1002.4
2018-11-05T21:24:14.540Z,1002.4
2018-11-05T21:36:43.092Z,1002.3
2018-11-05T21:48:35.863Z,1002.4
2018-11-05T22:00:09.260Z,1002.4
2018-11-05T22:11:41.868Z,1002.4
2018-11-05T22:21:57.923Z,1002.5
2018-11-05T22:33:08.128Z,1002.5
2018-11-05T22:44:06.445Z,1002.5
2018-11-05T22:55:31.306Z,1002.6
2018-11-05T23:06:30.267Z,1002.4
2018-11-05T23:16:44.774Z,1002.4
2018-11-05T23:27:35.994Z,1002.3
2018-11-05T23:38:48.164Z,1002.4
2018-11-05T23:50:58.282Z,1002.5
